sensor_id;sensor_type;location;lat;lon;timestamp;pressure;altitude;pressure_sealevel;temperature
68446;BMP280;35789;48.414;12.768;2023-03-09T00:00:01;94910.0;;;
68446;BMP280;35789;48.414;12.768;2023-03-09T00:05:00;94920.0;;;
68446;BMP280;35789;48.414;12.768;2023-03-09T00:10:01;94920.0;;;
68446;BMP280;35789;48.414;12.768;2023-03-09T00:15:00;94910.0;;;
68446;BMP280;35789;48.414;12.768;2023-03-09T00:20:01;94910.0;;;
68446;BMP280;35789;48.414;12.768;2023-03-09T00:25:00;94900.0;;;
68446;BMP280;35789;48.414;12.768;2023-03-09T00:30:00;94910.0;;;
68446;BMP280;35789;48.414;12.768;2023-03-09T00:35:00;94900.0;;;
68446;BMP280;35789;48.414;12.768;2023-03-09T00:40:00;94900.0;;;
68446;BMP280;35789;48.414;12.768;2023-03-09T00:45:00;94900.0;;;
68446;BMP280;35789;48.414;12.768;2023-03-09T00:50:00;94890.0;;;
68446;BMP280;35789;48.414;12.768;2023-03-09T00:55:01;94880.0;;;
68446;BMP280;35789;48.414;12.768;2023-03-09T01:00:00;94870.0;;;
68446;BMP280;35789;48.414;12.768;2023-03-09T01:05:00;94880.0;;;
68446;BMP280;35789;48.414;12.768;2023-03-09T01:10:01;94880.0;;;
68446;BMP280;35789;48.414;12.768;2023-03-09T01:15:00;94880.0;;;
68446;BMP280;35789;48.414;12.768;2023-03-09T01:20:00;94890.0;;;
68446;BMP280;35789;48.414;12.768;2023-03-09T01:25:00;94890.0;;;
68446;BMP280;35789;48.414;12.768;2023-03-09T01:30:00;94880.0;;;
68446;BMP280;35789;48.414;12.768;2023-03-09T01:35:00;94880.0;;;
68446;BMP280;35789;48.414;12.768;2023-03-09T01:40:01;94860.0;;;
68446;BMP280;35789;48.414;12.768;2023-03-09T01:50:01;94860.0;;;
68446;BMP280;35789;48.414;12.768;2023-03-09T01:55:04;94840.0;;;
68446;BMP280;35789;48.414;12.768;2023-03-09T02:00:05;94850.0;;;
68446;BMP280;35789;48.414;12.768;2023-03-09T02:05:05;94860.0;;;
68446;BMP280;35789;48.414;12.768;2023-03-09T02:10:09;94830.0;;;
68446;BMP280;35789;48.414;12.768;2023-03-09T02:15:02;94830.0;;;
68446;BMP280;35789;48.414;12.768;2023-03-09T02:20:17;94820.0;;;
68446;BMP280;35789;48.414;12.768;2023-03-09T02:25:13;94810.0;;;
68446;BMP280;35789;48.414;12.768;2023-03-09T02:30:01;94790.0;;;
68446;BMP280;35789;48.414;12.768;2023-03-09T02:35:00;94800.0;;;
68446;BMP280;35789;48.414;12.768;2023-03-09T02:40:08;94790.0;;;
68446;BMP280;35789;48.414;12.768;2023-03-09T02:45:01;94780.0;;;
68446;BMP280;35789;48.414;12.768;2023-03-09T02:50:00;94770.0;;;
68446;BMP280;35789;48.414;12.768;2023-03-09T02:55:00;94770.0;;;
68446;BMP280;35789;48.414;12.768;2023-03-09T03:00:00;94790.0;;;
68446;BMP280;35789;48.414;12.768;2023-03-09T03:05:00;94820.0;;;
68446;BMP280;35789;48.414;12.768;2023-03-09T03:10:00;94830.0;;;
68446;BMP280;35789;48.414;12.768;2023-03-09T03:15:00;94860.0;;;
68446;BMP280;35789;48.414;12.768;2023-03-09T03:20:00;94860.0;;;
68446;BMP280;35789;48.414;12.768;2023-03-09T03:25:00;94920.0;;;
68446;BMP280;35789;48.414;12.768;2023-03-09T03:30:00;94970.0;;;
68446;BMP280;35789;48.414;12.768;2023-03-09T03:35:00;94990.0;;;
68446;BMP280;35789;48.414;12.768;2023-03-09T03:40:00;94980.0;;;
68446;BMP280;35789;48.414;12.768;2023-03-09T03:45:00;94950.0;;;
68446;BMP280;35789;48.414;12.768;2023-03-09T03:50:00;94970.0;;;
68446;BMP280;35789;48.414;12.768;2023-03-09T03:55:00;94970.0;;;
68446;BMP280;35789;48.414;12.768;2023-03-09T04:00:00;94970.0;;;
68446;BMP280;35789;48.414;12.768;2023-03-09T04:05:00;94980.0;;;
68446;BMP280;35789;48.414;12.768;2023-03-09T04:10:00;94990.0;;;
68446;BMP280;35789;48.414;12.768;2023-03-09T04:15:00;94960.0;;;
68446;BMP280;35789;48.414;12.768;2023-03-09T04:20:00;94950.0;;;
68446;BMP280;35789;48.414;12.768;2023-03-09T04:25:00;94940.0;;;
68446;BMP280;35789;48.414;12.768;2023-03-09T04:30:00;94950.0;;;
68446;BMP280;35789;48.414;12.768;2023-03-09T04:35:00;94950.0;;;
68446;BMP280;35789;48.414;12.768;2023-03-09T04:40:00;94950.0;;;
68446;BMP280;35789;48.414;12.768;2023-03-09T04:45:02;94950.0;;;
68446;BMP280;35789;48.414;12.768;2023-03-09T04:50:00;94910.0;;;
68446;BMP280;35789;48.414;12.768;2023-03-09T04:55:00;94900.0;;;
68446;BMP280;35789;48.414;12.768;2023-03-09T05:00:00;94900.0;;;
68446;BMP280;35789;48.414;12.768;2023-03-09T05:05:00;94900.0;;;
68446;BMP280;35789;48.414;12.768;2023-03-09T05:10:00;94910.0;;;
68446;BMP280;35789;48.414;12.768;2023-03-09T05:15:01;94920.0;;;
68446;BMP280;35789;48.414;12.768;2023-03-09T05:20:00;94930.0;;;
68446;BMP280;35789;48.414;12.768;2023-03-09T05:25:00;94910.0;;;
68446;BMP280;35789;48.414;12.768;2023-03-09T05:30:02;94920.0;;;
68446;BMP280;35789;48.414;12.768;2023-03-09T05:35:00;94930.0;;;
68446;BMP280;35789;48.414;12.768;2023-03-09T05:40:00;94940.0;;;
68446;BMP280;35789;48.414;12.768;2023-03-09T05:45:00;94950.0;;;
68446;BMP280;35789;48.414;12.768;2023-03-09T05:50:00;94950.0;;;
68446;BMP280;35789;48.414;12.768;2023-03-09T05:55:00;94960.0;;;
68446;BMP280;35789;48.414;12.768;2023-03-09T06:00:00;94980.0;;;
68446;BMP280;35789;48.414;12.768;2023-03-09T06:05:00;94980.0;;;
68446;BMP280;35789;48.414;12.768;2023-03-09T06:10:00;94990.0;;;
68446;BMP280;35789;48.414;12.768;2023-03-09T06:15:00;94990.0;;;
68446;BMP280;35789;48.414;12.768;2023-03-09T06:20:01;95020.0;;;
68446;BMP280;35789;48.414;12.768;2023-03-09T06:25:00;95040.0;;;
68446;BMP280;35789;48.414;12.768;2023-03-09T06:30:00;95060.0;;;
68446;BMP280;35789;48.414;12.768;2023-03-09T06:35:01;95110.0;;;
68446;BMP280;35789;48.414;12.768;2023-03-09T06:40:00;95140.0;;;
68446;BMP280;35789;48.414;12.768;2023-03-09T06:45:00;95130.0;;;
68446;BMP280;35789;48.414;12.768;2023-03-09T06:50:00;95140.0;;;
68446;BMP280;35789;48.414;12.768;2023-03-09T06:55:00;95170.0;;;
68446;BMP280;35789;48.414;12.768;2023-03-09T07:00:00;95160.0;;;
68446;BMP280;35789;48.414;12.768;2023-03-09T07:05:00;95180.0;;;
68446;BMP280;35789;48.414;12.768;2023-03-09T07:10:00;95210.0;;;
68446;BMP280;35789;48.414;12.768;2023-03-09T07:15:00;95230.0;;;
68446;BMP280;35789;48.414;12.768;2023-03-09T07:20:00;95250.0;;;
68446;BMP280;35789;48.414;12.768;2023-03-09T07:25:00;95270.0;;;
68446;BMP280;35789;48.414;12.768;2023-03-09T07:30:00;95290.0;;;
68446;BMP280;35789;48.414;12.768;2023-03-09T07:35:00;95300.0;;;
68446;BMP280;35789;48.414;12.768;2023-03-09T07:40:00;95330.0;;;
68446;BMP280;35789;48.414;12.768;2023-03-09T07:45:00;95340.0;;;
68446;BMP280;35789;48.414;12.768;2023-03-09T07:50:02;95350.0;;;
68446;BMP280;35789;48.414;12.768;2023-03-09T07:55:01;95370.0;;;
68446;BMP280;35789;48.414;12.768;2023-03-09T08:00:01;95400.0;;;
68446;BMP280;35789;48.414;12.768;2023-03-09T08:05:00;95400.0;;;
68446;BMP280;35789;48.414;12.768;2023-03-09T08:10:00;95410.0;;;
68446;BMP280;35789;48.414;12.768;2023-03-09T08:15:01;95410.0;;;
68446;BMP280;35789;48.414;12.768;2023-03-09T08:20:00;95430.0;;;
68446;BMP280;35789;48.414;12.768;2023-03-09T08:25:00;95450.0;;;
68446;BMP280;35789;48.414;12.768;2023-03-09T08:30:00;95450.0;;;
68446;BMP280;35789;48.414;12.768;2023-03-09T08:35:00;95460.0;;;
68446;BMP280;35789;48.414;12.768;2023-03-09T08:40:00;95480.0;;;
68446;BMP280;35789;48.414;12.768;2023-03-09T08:45:00;95470.0;;;
68446;BMP280;35789;48.414;12.768;2023-03-09T08:50:00;95480.0;;;
68446;BMP280;35789;48.414;12.768;2023-03-09T08:55:00;95490.0;;;
68446;BMP280;35789;48.414;12.768;2023-03-09T09:00:00;95490.0;;;
68446;BMP280;35789;48.414;12.768;2023-03-09T09:05:00;95490.0;;;
68446;BMP280;35789;48.414;12.768;2023-03-09T09:10:00;95500.0;;;
68446;BMP280;35789;48.414;12.768;2023-03-09T09:15:00;95520.0;;;
68446;BMP280;35789;48.414;12.768;2023-03-09T09:20:00;95510.0;;;
68446;BMP280;35789;48.414;12.768;2023-03-09T09:25:00;95520.0;;;
68446;BMP280;35789;48.414;12.768;2023-03-09T09:30:00;95520.0;;;
68446;BMP280;35789;48.414;12.768;2023-03-09T09:35:01;95520.0;;;
68446;BMP280;35789;48.414;12.768;2023-03-09T09:40:00;95530.0;;;
68446;BMP280;35789;48.414;12.768;2023-03-09T09:45:05;95530.0;;;
68446;BMP280;35789;48.414;12.768;2023-03-09T09:50:02;95530.0;;;
68446;BMP280;35789;48.414;12.768;2023-03-09T09:55:16;95540.0;;;
68446;BMP280;35789;48.414;12.768;2023-03-09T10:00:05;95540.0;;;
68446;BMP280;35789;48.414;12.768;2023-03-09T10:05:04;95550.0;;;
68446;BMP280;35789;48.414;12.768;2023-03-09T10:10:04;95550.0;;;
68446;BMP280;35789;48.414;12.768;2023-03-09T10:15:04;95560.0;;;
68446;BMP280;35789;48.414;12.768;2023-03-09T10:20:12;95560.0;;;
68446;BMP280;35789;48.414;12.768;2023-03-09T10:25:00;95550.0;;;
68446;BMP280;35789;48.414;12.768;2023-03-09T10:30:05;95560.0;;;
68446;BMP280;35789;48.414;12.768;2023-03-09T10:35:18;95560.0;;;
68446;BMP280;35789;48.414;12.768;2023-03-09T10:40:06;95560.0;;;
68446;BMP280;35789;48.414;12.768;2023-03-09T10:45:09;95570.0;;;
68446;BMP280;35789;48.414;12.768;2023-03-09T10:50:09;95570.0;;;
68446;BMP280;35789;48.414;12.768;2023-03-09T10:55:20;95580.0;;;
68446;BMP280;35789;48.414;12.768;2023-03-09T11:00:09;95580.0;;;
68446;BMP280;35789;48.414;12.768;2023-03-09T11:05:17;95560.0;;;
68446;BMP280;35789;48.414;12.768;2023-03-09T11:10:01;95570.0;;;
68446;BMP280;35789;48.414;12.768;2023-03-09T11:15:04;95580.0;;;
68446;BMP280;35789;48.414;12.768;2023-03-09T11:20:23;95570.0;;;
68446;BMP280;35789;48.414;12.768;2023-03-09T11:25:00;95560.0;;;
68446;BMP280;35789;48.414;12.768;2023-03-09T11:30:06;95570.0;;;
68446;BMP280;35789;48.414;12.768;2023-03-09T11:35:01;95570.0;;;
68446;BMP280;35789;48.414;12.768;2023-03-09T11:40:05;95570.0;;;
68446;BMP280;35789;48.414;12.768;2023-03-09T11:45:02;95570.0;;;
68446;BMP280;35789;48.414;12.768;2023-03-09T11:50:21;95570.0;;;
68446;BMP280;35789;48.414;12.768;2023-03-09T11:55:14;95560.0;;;
68446;BMP280;35789;48.414;12.768;2023-03-09T12:00:05;95560.0;;;
68446;BMP280;35789;48.414;12.768;2023-03-09T12:05:01;95570.0;;;
68446;BMP280;35789;48.414;12.768;2023-03-09T12:10:04;95570.0;;;
68446;BMP280;35789;48.414;12.768;2023-03-09T12:15:05;95560.0;;;
68446;BMP280;35789;48.414;12.768;2023-03-09T12:20:01;95540.0;;;
68446;BMP280;35789;48.414;12.768;2023-03-09T12:25:03;95540.0;;;
68446;BMP280;35789;48.414;12.768;2023-03-09T12:30:21;95550.0;;;
68446;BMP280;35789;48.414;12.768;2023-03-09T12:35:04;95530.0;;;
68446;BMP280;35789;48.414;12.768;2023-03-09T12:40:19;95530.0;;;
68446;BMP280;35789;48.414;12.768;2023-03-09T12:50:04;95550.0;;;
68446;BMP280;35789;48.414;12.768;2023-03-09T12:55:11;95540.0;;;
68446;BMP280;35789;48.414;12.768;2023-03-09T13:00:21;95530.0;;;
68446;BMP280;35789;48.414;12.768;2023-03-09T13:05:11;95540.0;;;
68446;BMP280;35789;48.414;12.768;2023-03-09T13:10:00;95550.0;;;
68446;BMP280;35789;48.414;12.768;2023-03-09T13:15:21;95550.0;;;
68446;BMP280;35789;48.414;12.768;2023-03-09T13:20:16;95560.0;;;
68446;BMP280;35789;48.414;12.768;2023-03-09T13:25:24;95540.0;;;
68446;BMP280;35789;48.414;12.768;2023-03-09T13:30:18;95540.0;;;
68446;BMP280;35789;48.414;12.768;2023-03-09T13:35:11;95540.0;;;
68446;BMP280;35789;48.414;12.768;2023-03-09T13:40:03;95550.0;;;
68446;BMP280;35789;48.414;12.768;2023-03-09T13:45:03;95560.0;;;
68446;BMP280;35789;48.414;12.768;2023-03-09T13:50:00;95540.0;;;
68446;BMP280;35789;48.414;12.768;2023-03-09T13:55:00;95550.0;;;
68446;BMP280;35789;48.414;12.768;2023-03-09T14:00:09;95550.0;;;
68446;BMP280;35789;48.414;12.768;2023-03-09T14:05:06;95540.0;;;
68446;BMP280;35789;48.414;12.768;2023-03-09T14:10:04;95550.0;;;
68446;BMP280;35789;48.414;12.768;2023-03-09T14:15:04;95560.0;;;
68446;BMP280;35789;48.414;12.768;2023-03-09T14:20:01;95550.0;;;
68446;BMP280;35789;48.414;12.768;2023-03-09T14:25:00;95540.0;;;
68446;BMP280;35789;48.414;12.768;2023-03-09T14:30:23;95540.0;;;
68446;BMP280;35789;48.414;12.768;2023-03-09T14:35:22;95540.0;;;
68446;BMP280;35789;48.414;12.768;2023-03-09T14:40:21;95540.0;;;
68446;BMP280;35789;48.414;12.768;2023-03-09T14:45:19;95540.0;;;
68446;BMP280;35789;48.414;12.768;2023-03-09T14:50:00;95540.0;;;
68446;BMP280;35789;48.414;12.768;2023-03-09T14:55:00;95540.0;;;
68446;BMP280;35789;48.414;12.768;2023-03-09T15:00:00;95520.0;;;
68446;BMP280;35789;48.414;12.768;2023-03-09T15:05:00;95530.0;;;
68446;BMP280;35789;48.414;12.768;2023-03-09T15:10:00;95530.0;;;
68446;BMP280;35789;48.414;12.768;2023-03-09T15:15:01;95520.0;;;
68446;BMP280;35789;48.414;12.768;2023-03-09T15:20:00;95530.0;;;
68446;BMP280;35789;48.414;12.768;2023-03-09T15:25:00;95530.0;;;
68446;BMP280;35789;48.414;12.768;2023-03-09T15:30:01;95520.0;;;
68446;BMP280;35789;48.414;12.768;2023-03-09T15:35:00;95530.0;;;
68446;BMP280;35789;48.414;12.768;2023-03-09T15:40:00;95530.0;;;
68446;BMP280;35789;48.414;12.768;2023-03-09T15:45:00;95530.0;;;
68446;BMP280;35789;48.414;12.768;2023-03-09T15:50:00;95540.0;;;
68446;BMP280;35789;48.414;12.768;2023-03-09T15:55:00;95550.0;;;
68446;BMP280;35789;48.414;12.768;2023-03-09T16:00:00;95550.0;;;
68446;BMP280;35789;48.414;12.768;2023-03-09T16:05:00;95550.0;;;
68446;BMP280;35789;48.414;12.768;2023-03-09T16:10:00;95550.0;;;
68446;BMP280;35789;48.414;12.768;2023-03-09T16:15:00;95560.0;;;
68446;BMP280;35789;48.414;12.768;2023-03-09T16:20:00;95550.0;;;
68446;BMP280;35789;48.414;12.768;2023-03-09T16:25:00;95560.0;;;
68446;BMP280;35789;48.414;12.768;2023-03-09T16:30:00;95570.0;;;
68446;BMP280;35789;48.414;12.768;2023-03-09T16:35:03;95580.0;;;
68446;BMP280;35789;48.414;12.768;2023-03-09T16:40:01;95580.0;;;
68446;BMP280;35789;48.414;12.768;2023-03-09T16:45:00;95580.0;;;
68446;BMP280;35789;48.414;12.768;2023-03-09T16:50:06;95570.0;;;
68446;BMP280;35789;48.414;12.768;2023-03-09T16:55:04;95570.0;;;
68446;BMP280;35789;48.414;12.768;2023-03-09T17:00:00;95580.0;;;
68446;BMP280;35789;48.414;12.768;2023-03-09T17:05:03;95570.0;;;
68446;BMP280;35789;48.414;12.768;2023-03-09T17:10:00;95570.0;;;
68446;BMP280;35789;48.414;12.768;2023-03-09T17:15:00;95580.0;;;
68446;BMP280;35789;48.414;12.768;2023-03-09T17:20:00;95580.0;;;
68446;BMP280;35789;48.414;12.768;2023-03-09T17:25:01;95580.0;;;
68446;BMP280;35789;48.414;12.768;2023-03-09T17:30:00;95580.0;;;
68446;BMP280;35789;48.414;12.768;2023-03-09T17:35:01;95580.0;;;
68446;BMP280;35789;48.414;12.768;2023-03-09T17:40:01;95580.0;;;
68446;BMP280;35789;48.414;12.768;2023-03-09T17:45:01;95590.0;;;
68446;BMP280;35789;48.414;12.768;2023-03-09T17:50:00;95590.0;;;
68446;BMP280;35789;48.414;12.768;2023-03-09T17:55:00;95590.0;;;
68446;BMP280;35789;48.414;12.768;2023-03-09T18:00:00;95600.0;;;
68446;BMP280;35789;48.414;12.768;2023-03-09T18:05:00;95600.0;;;
68446;BMP280;35789;48.414;12.768;2023-03-09T18:10:00;95600.0;;;
68446;BMP280;35789;48.414;12.768;2023-03-09T18:15:00;95600.0;;;
68446;BMP280;35789;48.414;12.768;2023-03-09T18:20:00;95600.0;;;
68446;BMP280;35789;48.414;12.768;2023-03-09T18:25:00;95590.0;;;
68446;BMP280;35789;48.414;12.768;2023-03-09T18:30:00;95600.0;;;
68446;BMP280;35789;48.414;12.768;2023-03-09T18:35:00;95590.0;;;
68446;BMP280;35789;48.414;12.768;2023-03-09T18:40:00;95580.0;;;
68446;BMP280;35789;48.414;12.768;2023-03-09T18:45:00;95580.0;;;
68446;BMP280;35789;48.414;12.768;2023-03-09T18:50:00;95580.0;;;
68446;BMP280;35789;48.414;12.768;2023-03-09T18:55:00;95580.0;;;
68446;BMP280;35789;48.414;12.768;2023-03-09T19:00:02;95580.0;;;
68446;BMP280;35789;48.414;12.768;2023-03-09T19:05:00;95580.0;;;
68446;BMP280;35789;48.414;12.768;2023-03-09T19:10:00;95580.0;;;
68446;BMP280;35789;48.414;12.768;2023-03-09T19:15:00;95570.0;;;
68446;BMP280;35789;48.414;12.768;2023-03-09T19:20:01;95580.0;;;
68446;BMP280;35789;48.414;12.768;2023-03-09T19:25:00;95570.0;;;
68446;BMP280;35789;48.414;12.768;2023-03-09T19:30:00;95570.0;;;
68446;BMP280;35789;48.414;12.768;2023-03-09T19:35:00;95570.0;;;
68446;BMP280;35789;48.414;12.768;2023-03-09T19:40:00;95570.0;;;
68446;BMP280;35789;48.414;12.768;2023-03-09T19:45:00;95570.0;;;
68446;BMP280;35789;48.414;12.768;2023-03-09T19:50:00;95570.0;;;
68446;BMP280;35789;48.414;12.768;2023-03-09T19:55:00;95570.0;;;
68446;BMP280;35789;48.414;12.768;2023-03-09T20:00:01;95570.0;;;
68446;BMP280;35789;48.414;12.768;2023-03-09T20:05:01;95570.0;;;
68446;BMP280;35789;48.414;12.768;2023-03-09T20:10:01;95570.0;;;
68446;BMP280;35789;48.414;12.768;2023-03-09T20:15:00;95570.0;;;
68446;BMP280;35789;48.414;12.768;2023-03-09T20:20:00;95570.0;;;
68446;BMP280;35789;48.414;12.768;2023-03-09T20:25:00;95580.0;;;
68446;BMP280;35789;48.414;12.768;2023-03-09T20:30:00;95570.0;;;
68446;BMP280;35789;48.414;12.768;2023-03-09T20:35:00;95580.0;;;
68446;BMP280;35789;48.414;12.768;2023-03-09T20:40:00;95570.0;;;
68446;BMP280;35789;48.414;12.768;2023-03-09T20:45:00;95580.0;;;
68446;BMP280;35789;48.414;12.768;2023-03-09T20:50:00;95580.0;;;
68446;BMP280;35789;48.414;12.768;2023-03-09T20:55:01;95570.0;;;
68446;BMP280;35789;48.414;12.768;2023-03-09T21:00:00;95570.0;;;
68446;BMP280;35789;48.414;12.768;2023-03-09T21:05:00;95570.0;;;
68446;BMP280;35789;48.414;12.768;2023-03-09T21:10:00;95560.0;;;
68446;BMP280;35789;48.414;12.768;2023-03-09T21:15:00;95550.0;;;
68446;BMP280;35789;48.414;12.768;2023-03-09T21:20:02;95540.0;;;
68446;BMP280;35789;48.414;12.768;2023-03-09T21:25:00;95530.0;;;
68446;BMP280;35789;48.414;12.768;2023-03-09T21:30:00;95530.0;;;
68446;BMP280;35789;48.414;12.768;2023-03-09T21:35:00;95530.0;;;
68446;BMP280;35789;48.414;12.768;2023-03-09T21:40:00;95530.0;;;
68446;BMP280;35789;48.414;12.768;2023-03-09T21:45:01;95520.0;;;
68446;BMP280;35789;48.414;12.768;2023-03-09T21:50:00;95520.0;;;
68446;BMP280;35789;48.414;12.768;2023-03-09T21:55:00;95510.0;;;
68446;BMP280;35789;48.414;12.768;2023-03-09T22:00:00;95500.0;;;
68446;BMP280;35789;48.414;12.768;2023-03-09T22:05:00;95510.0;;;
68446;BMP280;35789;48.414;12.768;2023-03-09T22:10:01;95500.0;;;
68446;BMP280;35789;48.414;12.768;2023-03-09T22:15:00;95500.0;;;
68446;BMP280;35789;48.414;12.768;2023-03-09T22:20:00;95490.0;;;
68446;BMP280;35789;48.414;12.768;2023-03-09T22:25:00;95480.0;;;
68446;BMP280;35789;48.414;12.768;2023-03-09T22:30:00;95470.0;;;
68446;BMP280;35789;48.414;12.768;2023-03-09T22:35:00;95460.0;;;
68446;BMP280;35789;48.414;12.768;2023-03-09T22:40:00;95450.0;;;
68446;BMP280;35789;48.414;12.768;2023-03-09T22:45:01;95450.0;;;
68446;BMP280;35789;48.414;12.768;2023-03-09T22:50:00;95440.0;;;
68446;BMP280;35789;48.414;12.768;2023-03-09T22:55:00;95450.0;;;
68446;BMP280;35789;48.414;12.768;2023-03-09T23:00:01;95440.0;;;
68446;BMP280;35789;48.414;12.768;2023-03-09T23:05:00;95430.0;;;
68446;BMP280;35789;48.414;12.768;2023-03-09T23:10:00;95430.0;;;
68446;BMP280;35789;48.414;12.768;2023-03-09T23:15:00;95420.0;;;
68446;BMP280;35789;48.414;12.768;2023-03-09T23:20:01;95410.0;;;
68446;BMP280;35789;48.414;12.768;2023-03-09T23:25:00;95410.0;;;
68446;BMP280;35789;48.414;12.768;2023-03-09T23:30:00;95410.0;;;
68446;BMP280;35789;48.414;12.768;2023-03-09T23:35:00;95400.0;;;
68446;BMP280;35789;48.414;12.768;2023-03-09T23:40:01;95400.0;;;
68446;BMP280;35789;48.414;12.768;2023-03-09T23:45:01;95390.0;;;
68446;BMP280;35789;48.414;12.768;2023-03-09T23:50:01;95380.0;;;
68446;BMP280;35789;48.414;12.768;2023-03-09T23:55:00;95380.0;;;
